sensor_id;sensor_type;location;lat;lon;timestamp;P1;durP1;ratioP1;P2;durP2;ratioP2
28353;SDS011;15603;50.878;8.036;2024-02-26T00:02:25;3.67;;;1.52;;
28353;SDS011;15603;50.878;8.036;2024-02-26T00:04:52;5.25;;;1.35;;
28353;SDS011;15603;50.878;8.036;2024-02-26T00:07:19;2.03;;;1.00;;
28353;SDS011;15603;50.878;8.036;2024-02-26T00:09:46;5.30;;;1.15;;
28353;SDS011;15603;50.878;8.036;2024-02-26T00:12:13;1.20;;;0.80;;
28353;SDS011;15603;50.878;8.036;2024-02-26T00:14:40;1.25;;;0.82;;
28353;SDS011;15603;50.878;8.036;2024-02-26T00:17:08;1.05;;;0.70;;
28353;SDS011;15603;50.878;8.036;2024-02-26T00:19:35;0.75;;;0.40;;
28353;SDS011;15603;50.878;8.036;2024-02-26T00:22:03;0.75;;;0.50;;
28353;SDS011;15603;50.878;8.036;2024-02-26T00:24:30;2.38;;;0.63;;
28353;SDS011;15603;50.878;8.036;2024-02-26T00:26:57;0.55;;;0.30;;
28353;SDS011;15603;50.878;8.036;2024-02-26T00:29:24;0.80;;;0.40;;
28353;SDS011;15603;50.878;8.036;2024-02-26T00:31:52;1.30;;;0.47;;
28353;SDS011;15603;50.878;8.036;2024-02-26T00:34:20;0.60;;;0.30;;
28353;SDS011;15603;50.878;8.036;2024-02-26T00:36:47;0.43;;;0.20;;
28353;SDS011;15603;50.878;8.036;2024-02-26T00:39:14;0.95;;;0.38;;
28353;SDS011;15603;50.878;8.036;2024-02-26T00:41:41;0.98;;;0.70;;
28353;SDS011;15603;50.878;8.036;2024-02-26T00:44:09;1.05;;;0.30;;
28353;SDS011;15603;50.878;8.036;2024-02-26T00:46:37;0.40;;;0.32;;
28353;SDS011;15603;50.878;8.036;2024-02-26T00:49:04;0.63;;;0.30;;
28353;SDS011;15603;50.878;8.036;2024-02-26T00:51:31;0.90;;;0.35;;
28353;SDS011;15603;50.878;8.036;2024-02-26T00:53:58;0.30;;;0.22;;
28353;SDS011;15603;50.878;8.036;2024-02-26T00:56:26;1.65;;;0.40;;
28353;SDS011;15603;50.878;8.036;2024-02-26T00:58:53;1.80;;;0.32;;
28353;SDS011;15603;50.878;8.036;2024-02-26T01:01:20;0.55;;;0.30;;
28353;SDS011;15603;50.878;8.036;2024-02-26T01:03:47;1.42;;;0.40;;
28353;SDS011;15603;50.878;8.036;2024-02-26T01:06:15;1.45;;;0.30;;
28353;SDS011;15603;50.878;8.036;2024-02-26T01:08:42;1.90;;;0.50;;
28353;SDS011;15603;50.878;8.036;2024-02-26T01:11:09;0.55;;;0.20;;
28353;SDS011;15603;50.878;8.036;2024-02-26T01:13:36;0.82;;;0.20;;
28353;SDS011;15603;50.878;8.036;2024-02-26T01:16:04;1.73;;;0.60;;
28353;SDS011;15603;50.878;8.036;2024-02-26T01:18:31;1.10;;;0.32;;
28353;SDS011;15603;50.878;8.036;2024-02-26T01:20:59;0.90;;;0.30;;
28353;SDS011;15603;50.878;8.036;2024-02-26T01:23:26;4.47;;;0.60;;
28353;SDS011;15603;50.878;8.036;2024-02-26T01:25:53;2.95;;;0.63;;
28353;SDS011;15603;50.878;8.036;2024-02-26T01:28:20;1.30;;;0.70;;
28353;SDS011;15603;50.878;8.036;2024-02-26T01:30:47;0.68;;;0.30;;
28353;SDS011;15603;50.878;8.036;2024-02-26T01:33:14;2.28;;;0.40;;
28353;SDS011;15603;50.878;8.036;2024-02-26T01:35:42;0.63;;;0.50;;
28353;SDS011;15603;50.878;8.036;2024-02-26T01:38:09;0.70;;;0.40;;
28353;SDS011;15603;50.878;8.036;2024-02-26T01:40:36;1.58;;;0.25;;
28353;SDS011;15603;50.878;8.036;2024-02-26T01:43:03;0.85;;;0.30;;
28353;SDS011;15603;50.878;8.036;2024-02-26T01:45:30;1.48;;;0.32;;
28353;SDS011;15603;50.878;8.036;2024-02-26T01:47:58;1.05;;;0.20;;
28353;SDS011;15603;50.878;8.036;2024-02-26T01:50:25;0.55;;;0.32;;
28353;SDS011;15603;50.878;8.036;2024-02-26T01:52:54;0.98;;;0.38;;
28353;SDS011;15603;50.878;8.036;2024-02-26T01:55:22;1.20;;;0.40;;
28353;SDS011;15603;50.878;8.036;2024-02-26T01:57:50;1.80;;;0.40;;
28353;SDS011;15603;50.878;8.036;2024-02-26T02:00:19;1.27;;;0.57;;
28353;SDS011;15603;50.878;8.036;2024-02-26T02:02:48;0.65;;;0.40;;
28353;SDS011;15603;50.878;8.036;2024-02-26T02:05:17;0.98;;;0.40;;
28353;SDS011;15603;50.878;8.036;2024-02-26T02:07:47;2.65;;;0.60;;
28353;SDS011;15603;50.878;8.036;2024-02-26T02:10:15;0.57;;;0.35;;
28353;SDS011;15603;50.878;8.036;2024-02-26T02:12:44;1.33;;;0.40;;
28353;SDS011;15603;50.878;8.036;2024-02-26T02:15:12;1.27;;;0.40;;
28353;SDS011;15603;50.878;8.036;2024-02-26T02:17:39;1.00;;;0.50;;
28353;SDS011;15603;50.878;8.036;2024-02-26T02:20:14;2.03;;;0.40;;
28353;SDS011;15603;50.878;8.036;2024-02-26T02:22:46;0.77;;;0.47;;
28353;SDS011;15603;50.878;8.036;2024-02-26T02:25:13;2.88;;;0.47;;
28353;SDS011;15603;50.878;8.036;2024-02-26T02:27:41;1.45;;;0.40;;
28353;SDS011;15603;50.878;8.036;2024-02-26T02:30:09;2.45;;;0.50;;
28353;SDS011;15603;50.878;8.036;2024-02-26T02:32:38;0.57;;;0.40;;
28353;SDS011;15603;50.878;8.036;2024-02-26T02:35:08;4.47;;;0.45;;
28353;SDS011;15603;50.878;8.036;2024-02-26T02:37:35;0.85;;;0.30;;
28353;SDS011;15603;50.878;8.036;2024-02-26T02:40:02;1.42;;;0.40;;
28353;SDS011;15603;50.878;8.036;2024-02-26T02:42:29;1.15;;;0.40;;
28353;SDS011;15603;50.878;8.036;2024-02-26T02:44:56;2.17;;;0.50;;
28353;SDS011;15603;50.878;8.036;2024-02-26T02:47:24;0.52;;;0.47;;
28353;SDS011;15603;50.878;8.036;2024-02-26T02:49:51;1.58;;;0.60;;
28353;SDS011;15603;50.878;8.036;2024-02-26T02:52:18;1.40;;;0.60;;
28353;SDS011;15603;50.878;8.036;2024-02-26T02:54:45;1.63;;;0.50;;
28353;SDS011;15603;50.878;8.036;2024-02-26T02:57:13;5.45;;;0.77;;
28353;SDS011;15603;50.878;8.036;2024-02-26T02:59:40;0.95;;;0.32;;
28353;SDS011;15603;50.878;8.036;2024-02-26T03:02:08;0.98;;;0.40;;
28353;SDS011;15603;50.878;8.036;2024-02-26T03:04:35;2.65;;;0.60;;
28353;SDS011;15603;50.878;8.036;2024-02-26T03:07:02;2.97;;;0.43;;
28353;SDS011;15603;50.878;8.036;2024-02-26T03:09:30;0.68;;;0.43;;
28353;SDS011;15603;50.878;8.036;2024-02-26T03:11:57;2.10;;;0.57;;
28353;SDS011;15603;50.878;8.036;2024-02-26T03:14:24;1.25;;;0.38;;
28353;SDS011;15603;50.878;8.036;2024-02-26T03:16:55;2.65;;;1.45;;
28353;SDS011;15603;50.878;8.036;2024-02-26T03:19:22;1.58;;;0.70;;
28353;SDS011;15603;50.878;8.036;2024-02-26T03:21:49;1.75;;;0.85;;
28353;SDS011;15603;50.878;8.036;2024-02-26T03:24:17;1.48;;;0.68;;
28353;SDS011;15603;50.878;8.036;2024-02-26T03:26:44;2.17;;;0.40;;
28353;SDS011;15603;50.878;8.036;2024-02-26T03:29:11;0.90;;;0.45;;
28353;SDS011;15603;50.878;8.036;2024-02-26T03:31:38;0.93;;;0.50;;
28353;SDS011;15603;50.878;8.036;2024-02-26T03:34:05;3.28;;;0.73;;
28353;SDS011;15603;50.878;8.036;2024-02-26T03:36:33;1.08;;;0.52;;
28353;SDS011;15603;50.878;8.036;2024-02-26T03:39:00;0.90;;;0.50;;
28353;SDS011;15603;50.878;8.036;2024-02-26T03:41:28;1.00;;;0.47;;
28353;SDS011;15603;50.878;8.036;2024-02-26T03:43:55;0.93;;;0.32;;
28353;SDS011;15603;50.878;8.036;2024-02-26T03:46:23;2.65;;;0.52;;
28353;SDS011;15603;50.878;8.036;2024-02-26T03:48:50;1.52;;;0.57;;
28353;SDS011;15603;50.878;8.036;2024-02-26T03:51:17;0.40;;;0.40;;
28353;SDS011;15603;50.878;8.036;2024-02-26T03:53:44;0.95;;;0.50;;
28353;SDS011;15603;50.878;8.036;2024-02-26T03:56:12;1.75;;;0.75;;
28353;SDS011;15603;50.878;8.036;2024-02-26T03:58:42;0.68;;;0.40;;
28353;SDS011;15603;50.878;8.036;2024-02-26T04:01:09;1.15;;;0.70;;
28353;SDS011;15603;50.878;8.036;2024-02-26T04:03:37;1.13;;;0.47;;
28353;SDS011;15603;50.878;8.036;2024-02-26T04:06:04;1.75;;;0.60;;
28353;SDS011;15603;50.878;8.036;2024-02-26T04:08:32;0.85;;;0.43;;
28353;SDS011;15603;50.878;8.036;2024-02-26T04:10:59;1.60;;;0.70;;
28353;SDS011;15603;50.878;8.036;2024-02-26T04:13:27;1.27;;;0.52;;
28353;SDS011;15603;50.878;8.036;2024-02-26T04:15:54;1.95;;;0.73;;
28353;SDS011;15603;50.878;8.036;2024-02-26T04:18:21;0.68;;;0.40;;
28353;SDS011;15603;50.878;8.036;2024-02-26T04:20:49;1.65;;;0.45;;
28353;SDS011;15603;50.878;8.036;2024-02-26T04:23:18;3.10;;;0.52;;
28353;SDS011;15603;50.878;8.036;2024-02-26T04:25:45;2.85;;;0.93;;
28353;SDS011;15603;50.878;8.036;2024-02-26T04:28:12;1.63;;;0.70;;
28353;SDS011;15603;50.878;8.036;2024-02-26T04:30:40;1.13;;;0.38;;
28353;SDS011;15603;50.878;8.036;2024-02-26T04:33:07;1.42;;;0.70;;
28353;SDS011;15603;50.878;8.036;2024-02-26T04:35:35;1.98;;;0.55;;
28353;SDS011;15603;50.878;8.036;2024-02-26T04:38:02;2.22;;;0.70;;
28353;SDS011;15603;50.878;8.036;2024-02-26T04:40:29;1.92;;;0.73;;
28353;SDS011;15603;50.878;8.036;2024-02-26T04:42:56;1.70;;;0.35;;
28353;SDS011;15603;50.878;8.036;2024-02-26T04:45:24;4.90;;;0.82;;
28353;SDS011;15603;50.878;8.036;2024-02-26T04:47:51;0.93;;;0.50;;
28353;SDS011;15603;50.878;8.036;2024-02-26T04:50:18;3.75;;;0.60;;
28353;SDS011;15603;50.878;8.036;2024-02-26T04:52:45;1.30;;;0.50;;
28353;SDS011;15603;50.878;8.036;2024-02-26T04:55:13;1.08;;;0.50;;
28353;SDS011;15603;50.878;8.036;2024-02-26T04:57:40;1.05;;;0.55;;
28353;SDS011;15603;50.878;8.036;2024-02-26T05:00:07;0.73;;;0.40;;
28353;SDS011;15603;50.878;8.036;2024-02-26T05:02:35;3.72;;;0.73;;
28353;SDS011;15603;50.878;8.036;2024-02-26T05:05:05;0.88;;;0.50;;
28353;SDS011;15603;50.878;8.036;2024-02-26T05:07:33;1.70;;;0.60;;
28353;SDS011;15603;50.878;8.036;2024-02-26T05:10:00;4.15;;;0.52;;
28353;SDS011;15603;50.878;8.036;2024-02-26T05:12:27;5.57;;;0.80;;
28353;SDS011;15603;50.878;8.036;2024-02-26T05:14:54;4.20;;;0.80;;
28353;SDS011;15603;50.878;8.036;2024-02-26T05:17:21;1.02;;;0.70;;
28353;SDS011;15603;50.878;8.036;2024-02-26T05:19:52;2.28;;;0.80;;
28353;SDS011;15603;50.878;8.036;2024-02-26T05:22:19;2.38;;;1.08;;
28353;SDS011;15603;50.878;8.036;2024-02-26T05:24:46;1.42;;;0.75;;
28353;SDS011;15603;50.878;8.036;2024-02-26T05:27:13;1.33;;;0.60;;
28353;SDS011;15603;50.878;8.036;2024-02-26T05:29:40;4.57;;;0.77;;
28353;SDS011;15603;50.878;8.036;2024-02-26T05:32:07;0.80;;;0.50;;
28353;SDS011;15603;50.878;8.036;2024-02-26T05:34:35;1.55;;;0.60;;
28353;SDS011;15603;50.878;8.036;2024-02-26T05:37:02;6.28;;;0.80;;
28353;SDS011;15603;50.878;8.036;2024-02-26T05:39:30;0.68;;;0.55;;
28353;SDS011;15603;50.878;8.036;2024-02-26T05:41:57;1.17;;;0.60;;
28353;SDS011;15603;50.878;8.036;2024-02-26T05:44:26;1.67;;;0.70;;
28353;SDS011;15603;50.878;8.036;2024-02-26T05:46:53;1.52;;;0.63;;
28353;SDS011;15603;50.878;8.036;2024-02-26T05:49:22;3.92;;;0.73;;
28353;SDS011;15603;50.878;8.036;2024-02-26T05:51:49;1.23;;;0.38;;
28353;SDS011;15603;50.878;8.036;2024-02-26T05:54:17;2.67;;;0.70;;
28353;SDS011;15603;50.878;8.036;2024-02-26T05:56:44;0.65;;;0.43;;
28353;SDS011;15603;50.878;8.036;2024-02-26T05:59:11;2.20;;;0.90;;
28353;SDS011;15603;50.878;8.036;2024-02-26T06:01:38;2.60;;;1.00;;
28353;SDS011;15603;50.878;8.036;2024-02-26T06:04:05;1.30;;;0.98;;
28353;SDS011;15603;50.878;8.036;2024-02-26T06:06:33;1.58;;;0.75;;
28353;SDS011;15603;50.878;8.036;2024-02-26T06:09:00;3.63;;;0.80;;
28353;SDS011;15603;50.878;8.036;2024-02-26T06:11:28;1.45;;;0.73;;
28353;SDS011;15603;50.878;8.036;2024-02-26T06:13:55;0.60;;;0.60;;
28353;SDS011;15603;50.878;8.036;2024-02-26T06:16:22;0.98;;;0.60;;
28353;SDS011;15603;50.878;8.036;2024-02-26T06:18:49;1.65;;;0.70;;
28353;SDS011;15603;50.878;8.036;2024-02-26T06:21:16;1.92;;;0.82;;
28353;SDS011;15603;50.878;8.036;2024-02-26T06:23:44;3.47;;;0.82;;
28353;SDS011;15603;50.878;8.036;2024-02-26T06:26:11;2.10;;;0.88;;
28353;SDS011;15603;50.878;8.036;2024-02-26T06:28:38;2.72;;;1.15;;
28353;SDS011;15603;50.878;8.036;2024-02-26T06:31:07;8.13;;;1.15;;
28353;SDS011;15603;50.878;8.036;2024-02-26T06:33:34;4.63;;;0.80;;
28353;SDS011;15603;50.878;8.036;2024-02-26T06:36:02;2.75;;;0.80;;
28353;SDS011;15603;50.878;8.036;2024-02-26T06:38:29;1.63;;;0.90;;
28353;SDS011;15603;50.878;8.036;2024-02-26T06:40:56;5.70;;;2.08;;
28353;SDS011;15603;50.878;8.036;2024-02-26T06:43:24;4.05;;;1.00;;
28353;SDS011;15603;50.878;8.036;2024-02-26T06:45:51;5.25;;;0.73;;
28353;SDS011;15603;50.878;8.036;2024-02-26T06:48:18;1.80;;;0.90;;
28353;SDS011;15603;50.878;8.036;2024-02-26T06:50:45;0.95;;;0.68;;
28353;SDS011;15603;50.878;8.036;2024-02-26T06:53:12;4.75;;;1.15;;
28353;SDS011;15603;50.878;8.036;2024-02-26T06:55:39;5.85;;;1.50;;
28353;SDS011;15603;50.878;8.036;2024-02-26T06:58:07;4.25;;;1.17;;
28353;SDS011;15603;50.878;8.036;2024-02-26T07:00:35;2.58;;;1.40;;
28353;SDS011;15603;50.878;8.036;2024-02-26T07:03:02;3.03;;;2.08;;
28353;SDS011;15603;50.878;8.036;2024-02-26T07:05:30;5.10;;;2.35;;
28353;SDS011;15603;50.878;8.036;2024-02-26T07:07:57;6.13;;;2.13;;
28353;SDS011;15603;50.878;8.036;2024-02-26T07:10:24;5.53;;;2.35;;
28353;SDS011;15603;50.878;8.036;2024-02-26T07:12:52;4.68;;;1.52;;
28353;SDS011;15603;50.878;8.036;2024-02-26T07:15:19;4.25;;;1.13;;
28353;SDS011;15603;50.878;8.036;2024-02-26T07:17:46;3.42;;;1.30;;
28353;SDS011;15603;50.878;8.036;2024-02-26T07:20:15;4.88;;;1.83;;
28353;SDS011;15603;50.878;8.036;2024-02-26T07:22:43;3.17;;;1.00;;
28353;SDS011;15603;50.878;8.036;2024-02-26T07:25:10;2.30;;;1.02;;
28353;SDS011;15603;50.878;8.036;2024-02-26T07:27:40;2.45;;;0.77;;
28353;SDS011;15603;50.878;8.036;2024-02-26T07:30:07;4.05;;;0.73;;
28353;SDS011;15603;50.878;8.036;2024-02-26T07:32:36;1.90;;;0.80;;
28353;SDS011;15603;50.878;8.036;2024-02-26T07:35:03;3.05;;;0.70;;
28353;SDS011;15603;50.878;8.036;2024-02-26T07:37:32;8.65;;;1.00;;
28353;SDS011;15603;50.878;8.036;2024-02-26T07:39:59;1.50;;;0.70;;
28353;SDS011;15603;50.878;8.036;2024-02-26T07:42:26;3.05;;;1.10;;
28353;SDS011;15603;50.878;8.036;2024-02-26T07:44:53;2.08;;;0.90;;
28353;SDS011;15603;50.878;8.036;2024-02-26T07:47:20;2.42;;;0.60;;
28353;SDS011;15603;50.878;8.036;2024-02-26T07:49:48;2.28;;;0.90;;
28353;SDS011;15603;50.878;8.036;2024-02-26T07:52:15;2.90;;;0.77;;
28353;SDS011;15603;50.878;8.036;2024-02-26T07:54:42;1.65;;;0.95;;
28353;SDS011;15603;50.878;8.036;2024-02-26T07:57:09;2.35;;;0.75;;
28353;SDS011;15603;50.878;8.036;2024-02-26T07:59:36;1.48;;;0.52;;
28353;SDS011;15603;50.878;8.036;2024-02-26T08:02:04;1.80;;;0.77;;
28353;SDS011;15603;50.878;8.036;2024-02-26T08:04:32;2.05;;;1.00;;
28353;SDS011;15603;50.878;8.036;2024-02-26T08:06:59;2.15;;;1.10;;
28353;SDS011;15603;50.878;8.036;2024-02-26T08:09:27;2.80;;;1.38;;
28353;SDS011;15603;50.878;8.036;2024-02-26T08:11:54;2.65;;;1.00;;
28353;SDS011;15603;50.878;8.036;2024-02-26T08:14:22;1.58;;;1.02;;
28353;SDS011;15603;50.878;8.036;2024-02-26T08:16:49;2.83;;;1.05;;
28353;SDS011;15603;50.878;8.036;2024-02-26T08:19:16;3.63;;;1.10;;
28353;SDS011;15603;50.878;8.036;2024-02-26T08:21:44;1.80;;;0.93;;
28353;SDS011;15603;50.878;8.036;2024-02-26T08:24:12;7.55;;;0.93;;
28353;SDS011;15603;50.878;8.036;2024-02-26T08:26:39;2.05;;;0.95;;
28353;SDS011;15603;50.878;8.036;2024-02-26T08:29:06;7.10;;;1.08;;
28353;SDS011;15603;50.878;8.036;2024-02-26T08:31:33;4.32;;;1.23;;
28353;SDS011;15603;50.878;8.036;2024-02-26T08:34:00;1.63;;;0.90;;
28353;SDS011;15603;50.878;8.036;2024-02-26T08:36:28;6.38;;;1.00;;
28353;SDS011;15603;50.878;8.036;2024-02-26T08:38:56;3.03;;;0.80;;
28353;SDS011;15603;50.878;8.036;2024-02-26T08:41:23;1.95;;;0.77;;
28353;SDS011;15603;50.878;8.036;2024-02-26T08:43:50;3.35;;;1.05;;
28353;SDS011;15603;50.878;8.036;2024-02-26T08:46:17;3.38;;;1.00;;
28353;SDS011;15603;50.878;8.036;2024-02-26T08:48:44;3.35;;;1.15;;
28353;SDS011;15603;50.878;8.036;2024-02-26T08:51:12;5.28;;;0.98;;
28353;SDS011;15603;50.878;8.036;2024-02-26T08:53:40;3.15;;;0.95;;
28353;SDS011;15603;50.878;8.036;2024-02-26T08:56:10;3.10;;;1.08;;
28353;SDS011;15603;50.878;8.036;2024-02-26T08:58:45;3.00;;;0.93;;
28353;SDS011;15603;50.878;8.036;2024-02-26T09:01:15;4.43;;;1.23;;
28353;SDS011;15603;50.878;8.036;2024-02-26T09:03:43;1.15;;;0.63;;
28353;SDS011;15603;50.878;8.036;2024-02-26T09:06:10;2.40;;;0.90;;
28353;SDS011;15603;50.878;8.036;2024-02-26T09:08:40;1.85;;;0.90;;
28353;SDS011;15603;50.878;8.036;2024-02-26T09:11:08;3.53;;;1.50;;
28353;SDS011;15603;50.878;8.036;2024-02-26T09:13:37;4.07;;;1.30;;
28353;SDS011;15603;50.878;8.036;2024-02-26T09:16:05;6.75;;;1.40;;
28353;SDS011;15603;50.878;8.036;2024-02-26T09:18:32;4.45;;;2.05;;
28353;SDS011;15603;50.878;8.036;2024-02-26T09:21:03;3.47;;;1.45;;
28353;SDS011;15603;50.878;8.036;2024-02-26T09:23:31;5.18;;;1.60;;
28353;SDS011;15603;50.878;8.036;2024-02-26T09:25:58;4.40;;;1.52;;
28353;SDS011;15603;50.878;8.036;2024-02-26T09:28:25;4.82;;;1.52;;
28353;SDS011;15603;50.878;8.036;2024-02-26T09:30:52;2.95;;;1.10;;
28353;SDS011;15603;50.878;8.036;2024-02-26T09:33:20;8.43;;;1.95;;
28353;SDS011;15603;50.878;8.036;2024-02-26T09:35:47;5.60;;;1.60;;
28353;SDS011;15603;50.878;8.036;2024-02-26T09:38:14;5.55;;;0.85;;
28353;SDS011;15603;50.878;8.036;2024-02-26T09:40:42;2.25;;;1.23;;
28353;SDS011;15603;50.878;8.036;2024-02-26T09:43:10;2.25;;;1.40;;
28353;SDS011;15603;50.878;8.036;2024-02-26T09:45:41;2.65;;;1.30;;
28353;SDS011;15603;50.878;8.036;2024-02-26T09:48:09;3.72;;;1.70;;
28353;SDS011;15603;50.878;8.036;2024-02-26T09:50:39;2.55;;;1.25;;
28353;SDS011;15603;50.878;8.036;2024-02-26T09:53:08;5.63;;;2.00;;
28353;SDS011;15603;50.878;8.036;2024-02-26T09:55:37;3.28;;;1.27;;
28353;SDS011;15603;50.878;8.036;2024-02-26T09:58:05;8.85;;;1.73;;
28353;SDS011;15603;50.878;8.036;2024-02-26T10:00:38;4.05;;;1.48;;
28353;SDS011;15603;50.878;8.036;2024-02-26T10:03:09;2.13;;;1.00;;
28353;SDS011;15603;50.878;8.036;2024-02-26T10:05:41;4.55;;;1.52;;
28353;SDS011;15603;50.878;8.036;2024-02-26T10:08:10;2.05;;;1.15;;
28353;SDS011;15603;50.878;8.036;2024-02-26T10:10:39;3.20;;;1.45;;
28353;SDS011;15603;50.878;8.036;2024-02-26T10:13:06;3.33;;;1.05;;
28353;SDS011;15603;50.878;8.036;2024-02-26T10:15:37;4.50;;;1.50;;
28353;SDS011;15603;50.878;8.036;2024-02-26T10:18:05;3.78;;;1.33;;
28353;SDS011;15603;50.878;8.036;2024-02-26T10:20:33;5.35;;;1.45;;
28353;SDS011;15603;50.878;8.036;2024-02-26T10:23:03;2.33;;;1.17;;
28353;SDS011;15603;50.878;8.036;2024-02-26T10:25:31;3.92;;;2.08;;
28353;SDS011;15603;50.878;8.036;2024-02-26T10:28:00;2.10;;;1.20;;
28353;SDS011;15603;50.878;8.036;2024-02-26T10:30:31;2.60;;;1.42;;
28353;SDS011;15603;50.878;8.036;2024-02-26T10:32:58;3.10;;;1.40;;
28353;SDS011;15603;50.878;8.036;2024-02-26T10:35:26;6.03;;;2.22;;
28353;SDS011;15603;50.878;8.036;2024-02-26T10:37:55;5.65;;;1.50;;
28353;SDS011;15603;50.878;8.036;2024-02-26T10:40:22;7.15;;;2.95;;
28353;SDS011;15603;50.878;8.036;2024-02-26T10:42:49;4.45;;;1.85;;
28353;SDS011;15603;50.878;8.036;2024-02-26T10:45:17;11.75;;;1.75;;
28353;SDS011;15603;50.878;8.036;2024-02-26T10:47:44;3.83;;;1.75;;
28353;SDS011;15603;50.878;8.036;2024-02-26T10:50:12;3.65;;;1.70;;
28353;SDS011;15603;50.878;8.036;2024-02-26T10:52:41;3.40;;;1.30;;
28353;SDS011;15603;50.878;8.036;2024-02-26T10:55:11;2.67;;;1.35;;
28353;SDS011;15603;50.878;8.036;2024-02-26T10:57:42;3.45;;;1.55;;
28353;SDS011;15603;50.878;8.036;2024-02-26T11:00:13;2.65;;;1.48;;
28353;SDS011;15603;50.878;8.036;2024-02-26T11:02:42;9.35;;;1.63;;
28353;SDS011;15603;50.878;8.036;2024-02-26T11:05:12;4.93;;;1.80;;
28353;SDS011;15603;50.878;8.036;2024-02-26T11:07:41;3.10;;;1.60;;
28353;SDS011;15603;50.878;8.036;2024-02-26T11:10:09;4.95;;;2.22;;
28353;SDS011;15603;50.878;8.036;2024-02-26T11:12:39;5.45;;;1.85;;
28353;SDS011;15603;50.878;8.036;2024-02-26T11:15:06;5.82;;;2.33;;
28353;SDS011;15603;50.878;8.036;2024-02-26T11:17:35;2.75;;;1.52;;
28353;SDS011;15603;50.878;8.036;2024-02-26T11:20:05;4.40;;;1.50;;
28353;SDS011;15603;50.878;8.036;2024-02-26T11:22:38;2.70;;;1.27;;
28353;SDS011;15603;50.878;8.036;2024-02-26T11:25:05;4.65;;;1.48;;
28353;SDS011;15603;50.878;8.036;2024-02-26T11:27:35;7.03;;;2.03;;
28353;SDS011;15603;50.878;8.036;2024-02-26T11:30:08;4.22;;;1.70;;
28353;SDS011;15603;50.878;8.036;2024-02-26T11:32:37;3.63;;;1.20;;
28353;SDS011;15603;50.878;8.036;2024-02-26T11:35:05;3.70;;;1.60;;
28353;SDS011;15603;50.878;8.036;2024-02-26T11:37:34;3.03;;;1.73;;
28353;SDS011;15603;50.878;8.036;2024-02-26T11:40:11;3.58;;;1.10;;
28353;SDS011;15603;50.878;8.036;2024-02-26T11:42:44;3.40;;;1.58;;
28353;SDS011;15603;50.878;8.036;2024-02-26T11:55:33;2.38;;;1.52;;
28353;SDS011;15603;50.878;8.036;2024-02-26T12:00:57;4.00;;;2.55;;
28353;SDS011;15603;50.878;8.036;2024-02-26T12:03:25;3.13;;;1.80;;
28353;SDS011;15603;50.878;8.036;2024-02-26T12:05:52;3.35;;;1.80;;
28353;SDS011;15603;50.878;8.036;2024-02-26T12:08:19;3.80;;;1.77;;
28353;SDS011;15603;50.878;8.036;2024-02-26T12:10:48;6.03;;;1.92;;
28353;SDS011;15603;50.878;8.036;2024-02-26T12:13:15;4.82;;;2.08;;
28353;SDS011;15603;50.878;8.036;2024-02-26T12:18:23;4.57;;;2.33;;
28353;SDS011;15603;50.878;8.036;2024-02-26T12:21:00;3.80;;;1.90;;
28353;SDS011;15603;50.878;8.036;2024-02-26T12:23:28;3.83;;;1.95;;
28353;SDS011;15603;50.878;8.036;2024-02-26T12:25:59;2.63;;;1.67;;
28353;SDS011;15603;50.878;8.036;2024-02-26T12:28:29;4.45;;;1.90;;
28353;SDS011;15603;50.878;8.036;2024-02-26T12:30:57;3.65;;;1.70;;
28353;SDS011;15603;50.878;8.036;2024-02-26T12:33:27;5.05;;;2.10;;
28353;SDS011;15603;50.878;8.036;2024-02-26T12:35:56;7.45;;;2.35;;
28353;SDS011;15603;50.878;8.036;2024-02-26T12:38:24;6.93;;;1.70;;
28353;SDS011;15603;50.878;8.036;2024-02-26T12:40:51;2.22;;;1.67;;
28353;SDS011;15603;50.878;8.036;2024-02-26T12:43:18;3.25;;;1.67;;
28353;SDS011;15603;50.878;8.036;2024-02-26T12:45:45;5.18;;;1.90;;
28353;SDS011;15603;50.878;8.036;2024-02-26T12:48:14;4.60;;;1.95;;
28353;SDS011;15603;50.878;8.036;2024-02-26T12:50:47;3.35;;;1.85;;
28353;SDS011;15603;50.878;8.036;2024-02-26T12:53:15;5.05;;;2.20;;
28353;SDS011;15603;50.878;8.036;2024-02-26T12:55:42;4.53;;;1.90;;
28353;SDS011;15603;50.878;8.036;2024-02-26T12:58:10;3.75;;;1.52;;
28353;SDS011;15603;50.878;8.036;2024-02-26T13:00:38;3.83;;;1.85;;
28353;SDS011;15603;50.878;8.036;2024-02-26T13:03:06;4.05;;;1.80;;
28353;SDS011;15603;50.878;8.036;2024-02-26T13:05:33;3.90;;;1.90;;
28353;SDS011;15603;50.878;8.036;2024-02-26T13:08:01;6.43;;;2.30;;
28353;SDS011;15603;50.878;8.036;2024-02-26T13:10:31;3.00;;;2.00;;
28353;SDS011;15603;50.878;8.036;2024-02-26T13:13:01;6.55;;;2.38;;
28353;SDS011;15603;50.878;8.036;2024-02-26T13:15:29;6.38;;;2.72;;
28353;SDS011;15603;50.878;8.036;2024-02-26T13:17:57;4.85;;;2.17;;
28353;SDS011;15603;50.878;8.036;2024-02-26T13:20:29;3.13;;;1.80;;
28353;SDS011;15603;50.878;8.036;2024-02-26T13:23:04;5.80;;;2.33;;
28353;SDS011;15603;50.878;8.036;2024-02-26T13:25:33;4.00;;;2.10;;
28353;SDS011;15603;50.878;8.036;2024-02-26T13:30:36;8.18;;;2.90;;
28353;SDS011;15603;50.878;8.036;2024-02-26T13:33:12;4.75;;;1.90;;
28353;SDS011;15603;50.878;8.036;2024-02-26T13:35:40;9.07;;;2.47;;
28353;SDS011;15603;50.878;8.036;2024-02-26T13:38:07;4.88;;;2.17;;
28353;SDS011;15603;50.878;8.036;2024-02-26T13:40:35;5.38;;;1.73;;
28353;SDS011;15603;50.878;8.036;2024-02-26T13:43:05;3.92;;;1.88;;
28353;SDS011;15603;50.878;8.036;2024-02-26T13:45:36;4.38;;;2.40;;
28353;SDS011;15603;50.878;8.036;2024-02-26T13:48:05;4.60;;;2.13;;
28353;SDS011;15603;50.878;8.036;2024-02-26T13:50:34;4.38;;;2.50;;
28353;SDS011;15603;50.878;8.036;2024-02-26T13:53:02;5.88;;;2.15;;
28353;SDS011;15603;50.878;8.036;2024-02-26T13:55:31;4.13;;;2.65;;
28353;SDS011;15603;50.878;8.036;2024-02-26T13:57:59;5.40;;;2.60;;
28353;SDS011;15603;50.878;8.036;2024-02-26T14:00:30;3.05;;;1.70;;
28353;SDS011;15603;50.878;8.036;2024-02-26T14:03:01;5.83;;;1.53;;
28353;SDS011;15603;50.878;8.036;2024-02-26T14:05:30;3.70;;;1.92;;
28353;SDS011;15603;50.878;8.036;2024-02-26T14:07:57;3.63;;;1.60;;
28353;SDS011;15603;50.878;8.036;2024-02-26T14:10:25;6.63;;;2.30;;
28353;SDS011;15603;50.878;8.036;2024-02-26T14:12:53;3.40;;;1.77;;
28353;SDS011;15603;50.878;8.036;2024-02-26T14:15:20;4.63;;;2.25;;
28353;SDS011;15603;50.878;8.036;2024-02-26T14:17:47;2.33;;;1.58;;
28353;SDS011;15603;50.878;8.036;2024-02-26T14:20:20;6.03;;;2.22;;
28353;SDS011;15603;50.878;8.036;2024-02-26T14:22:48;4.38;;;2.20;;
28353;SDS011;15603;50.878;8.036;2024-02-26T14:25:15;4.93;;;1.98;;
28353;SDS011;15603;50.878;8.036;2024-02-26T14:27:42;4.88;;;2.40;;
28353;SDS011;15603;50.878;8.036;2024-02-26T14:30:09;6.05;;;2.30;;
28353;SDS011;15603;50.878;8.036;2024-02-26T14:32:37;6.50;;;2.10;;
28353;SDS011;15603;50.878;8.036;2024-02-26T14:35:05;4.72;;;1.50;;
28353;SDS011;15603;50.878;8.036;2024-02-26T14:37:37;5.80;;;2.03;;
28353;SDS011;15603;50.878;8.036;2024-02-26T14:40:04;5.18;;;1.90;;
28353;SDS011;15603;50.878;8.036;2024-02-26T14:42:32;6.80;;;2.55;;
28353;SDS011;15603;50.878;8.036;2024-02-26T14:44:59;5.57;;;2.28;;
28353;SDS011;15603;50.878;8.036;2024-02-26T14:47:27;8.35;;;2.67;;
28353;SDS011;15603;50.878;8.036;2024-02-26T14:49:54;5.63;;;2.28;;
28353;SDS011;15603;50.878;8.036;2024-02-26T14:52:21;4.78;;;2.42;;
28353;SDS011;15603;50.878;8.036;2024-02-26T14:54:48;6.47;;;2.63;;
28353;SDS011;15603;50.878;8.036;2024-02-26T14:57:15;5.72;;;2.67;;
28353;SDS011;15603;50.878;8.036;2024-02-26T14:59:43;6.35;;;2.17;;
28353;SDS011;15603;50.878;8.036;2024-02-26T15:02:11;4.47;;;1.85;;
28353;SDS011;15603;50.878;8.036;2024-02-26T15:04:38;6.75;;;2.45;;
28353;SDS011;15603;50.878;8.036;2024-02-26T15:07:05;8.77;;;2.60;;
28353;SDS011;15603;50.878;8.036;2024-02-26T15:09:33;6.70;;;2.10;;
28353;SDS011;15603;50.878;8.036;2024-02-26T15:12:01;4.57;;;2.42;;